Airfield :
LOGIN :

Register | Disclaimer

   EN    FR    IT 

 










Legend :    VFR   Marginal VFR   IFR   Intensive IFR   Very Intensive IFR
Visi :
Ceiling :
>= 8 km
>= 3000ft
5 to 8 km
1000 to 3000 ft
1500m to 5 km
500 to 1000 ft
800 to 1500m
200 to 500 ft
< 800m
< 200 ft
Symbols :   Thunderstorms  Fog  Heavy snow  Heavy precipitations  Wind > 20 kt
SIGMETs :     Misc.  Thunderstorms  Icing  Turbulence  Mountain Waves  Volcanic Ashes







- Airport Elevation : 459 ft
- IATA code : CER
- Download approach charts


LFRC - Cherbourg / Maupertus

CURRENT METAR :
  • 250630Z AUTO VRB03KT 0800 0250 R28/0750D FG SCT005 12/11 Q1018 TEMPO 0500 FG VV///

EXPIRED METARs :
  • 250600Z AUTO 00000KT 1800 BR FEW007 13/13 Q1018 TEMPO 0500 FG VV///
  • 250530Z AUTO 00000KT 0200 R28/0300N FG BKN006 OVC029 11/10 Q1017 TEMPO 0500 FG VV///
  • 250500Z AUTO VRB01KT 0400 0150 R28/1100D FG FEW009 11/10 Q1018
  • 250430Z AUTO 00000KT 1300 0550 R28/1100D BCFG SCT006 SCT029 12/11 Q1017
  • 250400Z AUTO 31002KT 1600 1100 R28/P2000 BR OVC006 12/12 Q1017

Expired Forecast.
No reported NOTAMs for that airfield.
1 SIGMET reported for the Brest FIR (LFRR) :
 
Embedded thunderstorms
LFRR SIGMET 3 VALID 250600/250800 LFPW
LFRR BREST FIR/UIR EMBD TS OBS WI N4545 W00145 - N4415 W00145 - N4430 W00230 - N4545 W00215 - N4545 W00145 TOP FL380 MOV NNE 20KT NC=



MET'MAP, your aeronautical weather chart ! - Copyright ORBIFLY December 2007 - Disclaimer

ORBIFLY MET'MAP TEAM :

Programming & Development : Alexandra Zaïnal
Concept & Development : Baudouin d'Aumeries
Co-Development & Prog : Marc-Olivier Méhu
Technical & hardware support : Manuel Goepfert

Contact : metmap@orbifly.com




SOURCES & CREDITS :

   NOAA